Metar z połowy godziny Komunikat METAR ze strony awiacja.imgw.pl Metar G30 EPPR METAR EPPR 240500Z 16008KT 3000 BR OVC008 M01/M02 Q1017 RMK M009 093 8/8=